createdAt,value
2023-07-06T00:03:29.834Z,16.4
2023-07-06T00:08:36.108Z,16.2
2023-07-06T00:13:42.010Z,16
2023-07-06T00:18:48.284Z,15.9
2023-07-06T00:23:54.196Z,15.9
2023-07-06T00:29:00.289Z,15.9
2023-07-06T00:34:06.389Z,15.9
2023-07-06T00:39:12.482Z,15.9
2023-07-06T00:44:18.574Z,15.7
2023-07-06T00:49:24.821Z,15.6
2023-07-06T00:54:29.783Z,15.5
2023-07-06T00:59:35.887Z,15.4
2023-07-06T01:04:41.977Z,15.4
2023-07-06T01:09:48.135Z,15.3
2023-07-06T01:14:54.315Z,15.2
2023-07-06T01:20:00.302Z,15.2
2023-07-06T01:25:06.359Z,15.2
2023-07-06T01:30:12.567Z,15.2
2023-07-06T01:35:18.659Z,15
2023-07-06T01:40:24.793Z,14.8
2023-07-06T01:45:29.756Z,14.6
2023-07-06T01:50:35.942Z,14.5
2023-07-06T01:55:42.059Z,14.4
2023-07-06T02:00:48.088Z,14.2
2023-07-06T02:05:54.128Z,14
2023-07-06T02:11:00.290Z,13.9
2023-07-06T02:16:06.324Z,13.7
2023-07-06T02:21:12.579Z,13.7
2023-07-06T02:26:18.538Z,13.6
2023-07-06T02:31:24.751Z,13.5
2023-07-06T02:36:30.877Z,13.5
2023-07-06T02:41:36.815Z,13.6
2023-07-06T02:46:42.890Z,13.7
2023-07-06T02:51:48.145Z,13.5
2023-07-06T02:56:54.157Z,13.5
2023-07-06T03:02:00.192Z,13.4
2023-07-06T03:07:06.269Z,13.2
2023-07-06T03:12:12.370Z,13.2
2023-07-06T03:17:18.500Z,13.1
2023-07-06T03:22:24.580Z,13
2023-07-06T03:27:30.670Z,13.1
2023-07-06T03:32:36.755Z,13.2
2023-07-06T03:37:42.874Z,13.2
2023-07-06T03:42:48.945Z,13.1
2023-07-06T03:47:55.029Z,13
2023-07-06T03:53:01.121Z,12.9
2023-07-06T03:58:06.250Z,12.8
2023-07-06T04:03:12.358Z,12.8
2023-07-06T04:08:18.439Z,13
2023-07-06T04:13:24.538Z,13.1
2023-07-06T04:18:30.617Z,13.2
2023-07-06T04:23:36.741Z,13.3
2023-07-06T04:28:42.815Z,13.3
2023-07-06T04:33:48.920Z,13.4
2023-07-06T04:38:55.058Z,13.5
2023-07-06T04:44:01.106Z,13.5
2023-07-06T04:49:07.197Z,13.6
2023-07-06T04:54:13.324Z,13.8
2023-07-06T04:59:19.392Z,14.1
2023-07-06T05:04:24.505Z,14.3
2023-07-06T05:09:30.601Z,14.5
2023-07-06T05:14:36.687Z,14.8
2023-07-06T05:19:42.773Z,15.2
2023-07-06T05:24:48.888Z,15.4
2023-07-06T05:29:54.998Z,15.5
2023-07-06T05:35:01.072Z,15.7
2023-07-06T05:40:07.199Z,15.9
2023-07-06T05:45:13.255Z,16.1
2023-07-06T05:50:19.342Z,16.3
2023-07-06T05:55:25.440Z,16.5
2023-07-06T06:00:31.545Z,16.8
2023-07-06T06:05:37.624Z,17.1
2023-07-06T06:10:42.862Z,17.3
2023-07-06T06:15:48.866Z,17.6
2023-07-06T06:20:54.921Z,17.9
2023-07-06T06:26:01.024Z,18.1
2023-07-06T06:31:07.125Z,18.3
2023-07-06T06:36:13.218Z,18.4
2023-07-06T06:41:19.317Z,18.6
2023-07-06T06:46:25.390Z,18.7
2023-07-06T06:51:31.488Z,18.9
2023-07-06T06:56:37.679Z,19
2023-07-06T07:01:43.682Z,19.1
2023-07-06T07:06:49.834Z,19.2
2023-07-06T07:11:55.881Z,19.3
2023-07-06T07:17:01.000Z,19.4
2023-07-06T07:22:07.114Z,19.5
2023-07-06T07:27:13.174Z,19.5
2023-07-06T07:32:19.373Z,19.7
2023-07-06T07:37:25.464Z,19.8
2023-07-06T07:42:31.466Z,19.9
2023-07-06T07:47:37.560Z,20.1
2023-07-06T07:52:43.647Z,20.2
2023-07-06T07:57:49.741Z,20.2
2023-07-06T08:02:55.906Z,20.3
2023-07-06T08:08:02.024Z,20.5
2023-07-06T08:13:08.026Z,20.6
2023-07-06T08:18:14.210Z,20.7
2023-07-06T08:23:19.246Z,20.8
2023-07-06T08:28:25.345Z,20.9
2023-07-06T08:33:31.399Z,21.1
2023-07-06T08:38:37.496Z,21.4
2023-07-06T08:43:43.607Z,21.7
2023-07-06T08:48:49.703Z,22
2023-07-06T08:53:55.792Z,22
2023-07-06T08:59:01.880Z,22
2023-07-06T09:04:07.981Z,22.5
2023-07-06T09:09:14.148Z,23.2
2023-07-06T09:14:20.171Z,24.1
2023-07-06T09:19:26.333Z,25.6
2023-07-06T09:29:38.459Z,27.2
2023-07-06T09:34:43.571Z,26.8
2023-07-06T09:39:49.702Z,25.2
2023-07-06T09:44:55.824Z,24.3
2023-07-06T09:50:01.838Z,24.5
2023-07-06T09:55:08.002Z,25.6
2023-07-06T10:00:14.069Z,25.4
2023-07-06T10:05:20.230Z,26.8
2023-07-06T10:10:26.221Z,28.6
2023-07-06T10:15:32.294Z,29.9
2023-07-06T10:20:38.570Z,30.4
2023-07-06T10:25:44.487Z,30.3
2023-07-06T10:30:50.625Z,31.5
2023-07-06T10:35:56.756Z,30
2023-07-06T10:41:01.808Z,30.6
2023-07-06T10:46:08.020Z,29
2023-07-06T10:51:13.989Z,26.6
2023-07-06T10:56:20.083Z,27.8
2023-07-06T11:01:26.258Z,30.1
2023-07-06T11:06:32.330Z,28.4
2023-07-06T11:11:38.357Z,27
2023-07-06T11:16:44.493Z,28.2
2023-07-06T11:21:50.554Z,30
2023-07-06T11:26:56.664Z,31
2023-07-06T11:32:02.809Z,31.3
2023-07-06T11:37:08.858Z,31.9
2023-07-06T11:42:15.036Z,30.1
2023-07-06T11:47:20.074Z,29.9
2023-07-06T11:52:26.317Z,31.1
2023-07-06T11:57:32.338Z,33.3
2023-07-06T12:02:38.345Z,34.4
2023-07-06T12:07:44.442Z,34.6
2023-07-06T12:12:50.532Z,34.1
2023-07-06T12:17:56.619Z,32.8
2023-07-06T12:23:02.753Z,31.6
2023-07-06T12:28:08.822Z,32.4
2023-07-06T12:33:14.913Z,31
2023-07-06T12:38:21.041Z,28.5
2023-07-06T12:43:27.108Z,30.3
2023-07-06T12:48:33.190Z,29.6
2023-07-06T12:53:38.304Z,27.4
2023-07-06T12:58:44.443Z,27.5
2023-07-06T13:03:50.507Z,28
2023-07-06T13:08:56.590Z,28.1
2023-07-06T13:14:02.683Z,28.2
2023-07-06T13:19:08.816Z,27.9
2023-07-06T13:24:14.888Z,27.5
2023-07-06T13:29:20.980Z,27.2
2023-07-06T13:34:27.220Z,27.3
2023-07-06T13:39:33.254Z,27.2
2023-07-06T13:44:39.302Z,26.5
2023-07-06T13:49:45.367Z,26.4
2023-07-06T13:54:51.579Z,26.1
2023-07-06T13:59:56.619Z,26.3
2023-07-06T14:05:02.641Z,26.5
2023-07-06T14:10:08.786Z,26.7
2023-07-06T14:15:14.837Z,27.2
2023-07-06T14:20:20.947Z,27.8
2023-07-06T14:25:27.020Z,28.7
2023-07-06T14:30:33.112Z,28.5
2023-07-06T14:35:39.229Z,28
2023-07-06T14:40:45.316Z,30.2
2023-07-06T14:45:51.409Z,30.4
2023-07-06T14:50:57.492Z,29.5
2023-07-06T14:56:03.585Z,29.1
2023-07-06T15:01:09.682Z,28.8
2023-07-06T15:06:14.810Z,27.8
2023-07-06T15:11:20.892Z,27.1
2023-07-06T15:16:26.995Z,26.3
2023-07-06T15:21:33.115Z,26.4
2023-07-06T15:26:39.176Z,26.3
2023-07-06T15:31:45.282Z,26.5
2023-07-06T15:36:51.367Z,26.7
2023-07-06T15:41:57.470Z,26.5
2023-07-06T15:47:03.539Z,25.9
2023-07-06T15:52:09.645Z,25.7
2023-07-06T15:57:15.745Z,25.5
2023-07-06T16:02:21.841Z,25.6
2023-07-06T16:07:27.981Z,25.5
2023-07-06T16:12:33.055Z,25.6
2023-07-06T16:17:39.135Z,26
2023-07-06T16:22:45.345Z,26.3
2023-07-06T16:27:51.400Z,26.5
2023-07-06T16:32:57.412Z,26.4
2023-07-06T16:38:03.527Z,26.1
2023-07-06T16:43:09.601Z,26.3
2023-07-06T16:48:15.701Z,26.1
2023-07-06T16:53:21.806Z,27.3
2023-07-06T16:58:27.948Z,28
2023-07-06T17:03:34.025Z,28.1
2023-07-06T17:08:40.183Z,28.4
2023-07-06T17:13:46.178Z,28.2
2023-07-06T17:18:51.393Z,27.6
2023-07-06T17:23:57.441Z,27.8
2023-07-06T17:29:03.519Z,28.3
2023-07-06T17:34:09.564Z,28.4
2023-07-06T17:39:15.682Z,28.3
2023-07-06T17:44:21.766Z,27.7
2023-07-06T17:49:27.836Z,27.3
2023-07-06T17:54:33.939Z,26.9
2023-07-06T17:59:40.083Z,26.8
2023-07-06T18:04:46.180Z,26.6
2023-07-06T18:09:52.228Z,26.2
2023-07-06T18:14:58.350Z,25.7
2023-07-06T18:20:04.449Z,25
2023-07-06T18:25:09.620Z,24.4
2023-07-06T18:30:15.637Z,24.1
2023-07-06T18:35:21.729Z,23.6
2023-07-06T18:40:27.811Z,23
2023-07-06T18:45:33.964Z,22.5
2023-07-06T18:50:39.028Z,22.2
2023-07-06T18:55:45.135Z,22.1
2023-07-06T19:00:51.231Z,21.8
2023-07-06T19:11:03.400Z,21.3
2023-07-06T19:16:09.644Z,21
2023-07-06T19:21:15.617Z,20.6
2023-07-06T19:26:21.699Z,20.3
2023-07-06T19:31:27.782Z,19.9
2023-07-06T19:36:33.982Z,19.6
2023-07-06T19:41:40.013Z,19.4
2023-07-06T19:46:46.084Z,19.1
2023-07-06T19:51:52.160Z,18.8
2023-07-06T19:56:57.266Z,18.6
2023-07-06T20:02:03.405Z,18.4
2023-07-06T20:07:09.458Z,18.5
2023-07-06T20:12:15.661Z,18.4
2023-07-06T20:17:21.641Z,18.1
2023-07-06T20:22:27.732Z,17.8
2023-07-06T20:27:33.872Z,17.6
2023-07-06T20:32:39.930Z,17.3
2023-07-06T20:37:46.060Z,17.1
2023-07-06T20:42:52.104Z,16.9
2023-07-06T20:47:58.213Z,16.8
2023-07-06T20:53:04.298Z,16.6
2023-07-06T20:58:10.406Z,16.4
2023-07-06T21:03:15.569Z,16.2
2023-07-06T21:08:20.668Z,16.1
2023-07-06T21:13:25.726Z,16.2
2023-07-06T21:18:31.920Z,16.1
2023-07-06T21:23:37.993Z,15.9
2023-07-06T21:28:44.019Z,15.8
2023-07-06T21:33:50.142Z,15.6
2023-07-06T21:38:56.193Z,15.4
2023-07-06T21:44:02.488Z,15.3
2023-07-06T21:49:08.445Z,15.1
2023-07-06T21:54:14.573Z,14.9
2023-07-06T21:59:20.680Z,14.9
2023-07-06T22:04:26.745Z,15
2023-07-06T22:09:32.804Z,15
2023-07-06T22:14:38.863Z,14.9
2023-07-06T22:19:44.049Z,14.7
2023-07-06T22:24:50.252Z,14.5
2023-07-06T22:29:56.182Z,14.6
2023-07-06T22:35:02.270Z,14.5
2023-07-06T22:40:08.473Z,14.3
2023-07-06T22:45:14.534Z,14.2
2023-07-06T22:50:20.547Z,14
2023-07-06T22:55:26.657Z,13.9
2023-07-06T23:00:32.747Z,13.8
2023-07-06T23:05:38.857Z,13.7
2023-07-06T23:10:44.941Z,13.7
2023-07-06T23:15:51.151Z,13.7
2023-07-06T23:20:57.202Z,13.6
2023-07-06T23:31:08.482Z,13.5
2023-07-06T23:36:14.428Z,13.4
2023-07-06T23:41:20.515Z,13.5
2023-07-06T23:46:26.615Z,13.5
2023-07-06T23:51:32.736Z,13.4
2023-07-06T23:56:38.799Z,13.2
